CheckWX is a tool to help pilots better visualize weather data.  It is not intended as a substitute for an official pre-flight weather briefing.

13:58:29 UTC

KELM TAF
Elmira / Corning Regional Airport
Elmira/Corning, New York, USA
KELM 181139Z 1812/1912 00000KT 1/2SM FG VV002 FM181300 00000KT 2SM BR BKN002 FM181400 22006KT P6SM BKN045 TEMPO 1819/1823 -TSRA OVC040CB FM190000 VRB02KT P6SM BKN250

Aug-18@
12:00 UTC

Aug-18 @ 12:00 UTC

Aug-18@
13:00 UTC

Aug-18 @ 13:00 UTC

KELM 181139Z 1812/1912 00000KT 1/2SM FG VV002

Expired

Conditions
Fog
Cloud Levels
  • Vertical visibility at 200' AGL

Aug-18@
13:00 UTC

Aug-18 @ 13:00 UTC

Aug-18@
14:00 UTC

Aug-18 @ 14:00 UTC

FM181300 00000KT 2SM BR BKN002

From

From Standard forecast or significant change

Conditions
Mist
Cloud Levels
  • Broken at 200' AGL

Aug-18@
14:00 UTC

Aug-18 @ 14:00 UTC

Aug-19@
00:00 UTC

Aug-19 @ 00:00 UTC

FM181400 22006KT P6SM BKN045

From

From Standard forecast or significant change

Wind
  • 220° at 6 KTS
Cloud Levels
  • Broken at 4,500' AGL

Aug-18@
19:00 UTC

Aug-18 @ 19:00 UTC

Aug-18@
23:00 UTC

Aug-18 @ 23:00 UTC

TEMPO 1819/1823 -TSRA OVC040CB

Temporary

Temporary Changes expected for less than half the time period

Conditions
Light Thunderstorm, Light Rain
Cloud Levels
  • Overcast at 4,000' AGL

Aug-19@
00:00 UTC

Aug-19 @ 00:00 UTC

Aug-19@
12:00 UTC

Aug-19 @ 12:00 UTC

FM190000 VRB02KT P6SM BKN250

From

From Standard forecast or significant change

Wind
  • Variable at 2 KTS
Cloud Levels
  • Broken at 25,000' AGL